createdAt,value
2019-01-11T00:01:55.718Z,99.90
2019-01-11T00:04:25.237Z,99.90
2019-01-11T00:07:13.622Z,99.90
2019-01-11T00:09:42.979Z,99.90
2019-01-11T00:12:12.374Z,99.90
2019-01-11T00:14:42.569Z,99.90
2019-01-11T00:17:11.900Z,99.90
2019-01-11T00:19:41.277Z,99.90
2019-01-11T00:22:10.689Z,99.90
2019-01-11T00:24:40.010Z,99.90
2019-01-11T00:27:09.334Z,99.90
2019-01-11T00:29:38.814Z,99.90
2019-01-11T00:32:08.135Z,99.90
2019-01-11T00:34:37.450Z,99.90
2019-01-11T00:37:06.818Z,99.90
2019-01-11T00:39:36.134Z,99.90
2019-01-11T00:42:05.458Z,99.90
2019-01-11T00:44:34.815Z,99.90
2019-01-11T00:47:04.330Z,99.90
2019-01-11T00:49:33.650Z,99.90
2019-01-11T00:52:02.970Z,99.90
2019-01-11T00:54:32.308Z,99.90
2019-01-11T00:57:01.629Z,99.90
2019-01-11T00:59:30.951Z,99.90
2019-01-11T01:02:00.386Z,99.90
2019-01-11T01:04:29.778Z,99.90
2019-01-11T01:06:59.119Z,99.90
2019-01-11T01:09:28.676Z,99.90
2019-01-11T01:11:58.155Z,99.90
2019-01-11T01:14:27.463Z,99.90
2019-01-11T01:16:56.786Z,99.90
2019-01-11T01:19:26.106Z,99.90
2019-01-11T01:21:55.430Z,99.90
2019-01-11T01:24:24.842Z,99.90
2019-01-11T01:26:54.165Z,99.90
2019-01-11T01:29:23.479Z,99.90
2019-01-11T01:31:52.910Z,99.90
2019-01-11T01:34:22.227Z,99.90
2019-01-11T01:51:43.906Z,99.90
2019-01-11T01:54:13.635Z,99.90
2019-01-11T01:56:43.030Z,99.90
2019-01-11T01:59:12.346Z,99.90
2019-01-11T02:04:10.406Z,99.90
2019-01-11T02:06:39.736Z,99.90
2019-01-11T02:09:28.130Z,99.90
2019-01-11T02:11:57.483Z,99.90
2019-01-11T02:14:26.798Z,99.90
2019-01-11T02:16:56.134Z,99.90
2019-01-11T02:19:25.511Z,99.90
2019-01-11T02:22:13.967Z,99.90
2019-01-11T02:24:43.278Z,99.90
2019-01-11T02:27:12.594Z,99.90
2019-01-11T02:29:41.968Z,99.90
2019-01-11T02:32:11.307Z,99.90
2019-01-11T02:34:40.623Z,99.90
2019-01-11T02:37:09.990Z,99.90
2019-01-11T02:39:39.314Z,99.90
2019-01-11T02:42:08.644Z,99.90
2019-01-11T02:44:37.971Z,99.90
2019-01-11T02:47:07.464Z,99.90
2019-01-11T02:49:40.210Z,99.90
2019-01-11T02:52:07.935Z,99.90
2019-01-11T02:54:37.262Z,99.90
2019-01-11T02:57:06.588Z,99.90
2019-01-11T02:59:35.982Z,99.90
2019-01-11T03:02:05.874Z,99.90
2019-01-11T03:04:35.199Z,99.90
2019-01-11T03:07:04.521Z,99.90
2019-01-11T03:09:33.935Z,99.90
2019-01-11T03:12:03.262Z,99.90
2019-01-11T03:14:33.706Z,99.90
2019-01-11T03:17:03.404Z,99.90
2019-01-11T03:19:32.719Z,99.90
2019-01-11T03:22:02.049Z,99.90
2019-01-11T03:24:31.438Z,99.90
2019-01-11T03:27:00.803Z,99.90
2019-01-11T03:29:30.127Z,99.90
2019-01-11T03:31:59.448Z,99.90
2019-01-11T03:34:29.211Z,99.90
2019-01-11T03:36:58.530Z,99.90
2019-01-11T03:39:27.850Z,99.90
2019-01-11T03:42:10.559Z,99.90
2019-01-11T03:44:39.971Z,99.90
2019-01-11T03:47:09.297Z,99.90
2019-01-11T03:49:57.734Z,99.90
2019-01-11T03:52:27.088Z,99.90
2019-01-11T03:54:56.410Z,99.90
2019-01-11T03:57:25.794Z,99.90
2019-01-11T03:59:55.111Z,99.90
2019-01-11T04:02:24.435Z,99.90
2019-01-11T04:04:53.751Z,99.90
2019-01-11T04:07:23.102Z,99.90
2019-01-11T04:09:52.477Z,99.90
2019-01-11T04:12:21.836Z,99.90
2019-01-11T04:14:51.190Z,99.90
2019-01-11T04:17:20.510Z,99.90
2019-01-11T04:19:49.836Z,99.90
2019-01-11T04:22:29.843Z,99.90
2019-01-11T04:25:10.171Z,99.90
2019-01-11T04:27:39.621Z,99.90
2019-01-11T04:30:13.050Z,99.90
2019-01-11T04:32:42.501Z,99.90
2019-01-11T04:35:11.944Z,99.90
2019-01-11T04:37:41.302Z,99.90
2019-01-11T04:40:11.800Z,99.90
2019-01-11T04:42:41.118Z,99.90
2019-01-11T04:45:11.152Z,99.90
2019-01-11T04:47:40.534Z,99.90
2019-01-11T04:50:11.428Z,99.90
2019-01-11T04:52:40.739Z,99.90
2019-01-11T04:55:10.881Z,99.90
2019-01-11T04:57:40.262Z,99.90
2019-01-11T05:00:18.277Z,99.90
2019-01-11T05:02:47.903Z,99.90
2019-01-11T05:05:17.522Z,99.90
2019-01-11T05:07:46.955Z,99.90
2019-01-11T05:10:17.931Z,99.90
2019-01-11T05:12:47.250Z,99.90
2019-01-11T05:15:16.701Z,99.90
2019-01-11T05:17:46.088Z,99.90
2019-01-11T05:20:17.390Z,99.90
2019-01-11T05:22:47.153Z,99.90
2019-01-11T05:25:16.602Z,99.90
2019-01-11T05:27:45.918Z,99.90
2019-01-11T05:30:17.454Z,99.90
2019-01-11T05:32:46.802Z,99.90
2019-01-11T05:35:16.144Z,99.90
2019-01-11T05:37:45.550Z,99.90
2019-01-11T05:43:19.911Z,99.90
2019-01-11T05:45:49.215Z,99.90
2019-01-11T05:48:18.542Z,99.90
2019-01-11T05:50:47.872Z,99.90
2019-01-11T05:53:17.198Z,99.90
2019-01-11T05:55:48.083Z,99.90
2019-01-11T05:58:42.455Z,99.90
2019-01-11T06:01:12.323Z,99.90
2019-01-11T06:03:41.832Z,99.90
2019-01-11T06:06:11.263Z,99.90
2019-01-11T06:08:40.985Z,99.90
2019-01-11T06:11:10.316Z,99.90
2019-01-11T06:13:39.639Z,99.90
2019-01-11T06:16:08.966Z,99.90
2019-01-11T06:18:38.302Z,99.90
2019-01-11T06:21:07.638Z,99.90
2019-01-11T06:23:36.950Z,99.90
2019-01-11T06:26:06.279Z,99.90
2019-01-11T06:28:35.600Z,99.90
2019-01-11T06:31:04.979Z,99.90
2019-01-11T06:33:34.302Z,99.90
2019-01-11T06:36:03.622Z,99.90
2019-01-11T06:38:32.947Z,99.90
2019-01-11T06:41:02.280Z,99.90
2019-01-11T06:43:31.633Z,99.90
2019-01-11T06:46:01.026Z,99.90
2019-01-11T06:48:41.385Z,99.90
2019-01-11T06:51:10.857Z,99.90
2019-01-11T06:53:40.180Z,99.90
2019-01-11T06:56:09.498Z,99.90
2019-01-11T06:58:38.818Z,99.90
2019-01-11T07:01:08.271Z,99.90
2019-01-11T07:03:37.602Z,99.90
2019-01-11T07:06:06.923Z,99.90
2019-01-11T07:08:36.246Z,99.90
2019-01-11T07:11:05.661Z,99.90
2019-01-11T07:13:34.981Z,99.90
2019-01-11T07:16:04.503Z,99.90
2019-01-11T07:18:52.875Z,99.90
2019-01-11T07:21:22.278Z,99.90
2019-01-11T07:23:51.590Z,99.90
2019-01-11T07:26:40.044Z,99.90
2019-01-11T07:29:09.423Z,99.90
2019-01-11T07:31:38.738Z,99.90
2019-01-11T07:34:08.058Z,99.90
2019-01-11T07:36:37.693Z,99.90
2019-01-11T07:39:43.815Z,99.90
2019-01-11T07:42:13.175Z,99.90
2019-01-11T07:44:42.486Z,99.90
2019-01-11T07:47:11.943Z,99.90
2019-01-11T10:32:54.550Z,99.90
2019-01-11T10:35:23.884Z,99.90
2019-01-11T10:37:53.214Z,99.90
2019-01-11T10:40:22.536Z,99.90
2019-01-11T10:42:51.856Z,99.90
2019-01-11T10:45:24.430Z,99.90
2019-01-11T10:47:54.283Z,99.90
2019-01-11T10:50:23.746Z,99.90
2019-01-11T10:52:53.074Z,99.90
2019-01-11T10:55:22.401Z,99.90
2019-01-11T10:57:51.799Z,99.90
2019-01-11T11:00:25.718Z,99.90
2019-01-11T11:02:55.720Z,99.90
2019-01-11T11:05:25.038Z,99.90
2019-01-11T11:07:54.458Z,99.90
2019-01-11T11:10:23.849Z,99.90
2019-01-11T11:12:53.390Z,99.90
2019-01-11T11:15:23.475Z,99.30
2019-01-11T11:17:52.799Z,99.20
2019-01-11T11:20:22.212Z,97.60
2019-01-11T11:22:52.588Z,97.40
2019-01-11T11:32:59.510Z,98.60
2019-01-11T11:35:29.728Z,99.00
2019-01-11T11:37:59.163Z,98.30
2019-01-11T11:40:29.762Z,98.10
2019-01-11T11:42:59.082Z,98.30
2019-01-11T11:45:28.436Z,97.60
2019-01-11T11:47:57.757Z,95.90
2019-01-11T11:52:55.859Z,95.10
2019-01-11T11:55:25.174Z,94.80
2019-01-11T11:57:54.503Z,94.80
2019-01-11T12:00:26.234Z,94.00
2019-01-11T12:02:55.755Z,94.20
2019-01-11T12:05:25.066Z,92.70
2019-01-11T12:07:54.694Z,92.70
2019-01-11T12:10:24.029Z,92.70
2019-01-11T12:12:53.352Z,92.40
2019-01-11T12:15:22.671Z,91.10
2019-01-11T12:17:51.997Z,91.10
2019-01-11T12:20:30.016Z,90.70
2019-01-11T12:22:59.847Z,90.30
2019-01-11T12:25:29.170Z,88.80
2019-01-11T12:27:58.510Z,88.10
2019-01-11T12:30:27.853Z,86.50
2019-01-11T12:32:57.323Z,85.30
2019-01-11T12:35:26.645Z,85.00
2019-01-11T12:45:22.091Z,81.50
2019-01-11T12:47:51.487Z,82.00
2019-01-11T12:50:23.102Z,81.60
2019-01-11T12:57:49.935Z,79.10
2019-01-11T13:00:19.536Z,80.00
2019-01-11T13:02:48.891Z,79.90
2019-01-11T13:05:20.353Z,79.70
2019-01-11T13:07:49.679Z,78.20
2019-01-11T13:10:20.502Z,79.40
2019-01-11T13:12:49.950Z,78.30
2019-01-11T13:15:21.139Z,77.40
2019-01-11T13:17:50.559Z,77.30
2019-01-11T13:20:21.290Z,79.80
2019-01-11T13:22:50.902Z,79.00
2019-01-11T13:25:20.257Z,77.30
2019-01-11T13:28:08.695Z,78.40
2019-01-11T13:30:38.121Z,78.50
2019-01-11T13:33:07.499Z,79.90
2019-01-11T13:35:36.827Z,78.40
2019-01-11T13:38:06.150Z,78.20
2019-01-11T13:40:35.469Z,78.10
2019-01-11T13:43:04.895Z,80.10
2019-01-11T13:45:34.326Z,79.90
2019-01-11T13:48:03.732Z,79.50
2019-01-11T13:50:34.851Z,80.40
2019-01-11T13:53:04.719Z,80.10
2019-01-11T13:55:34.047Z,80.20
2019-01-11T13:58:03.372Z,80.10
2019-01-11T14:00:32.693Z,80.80
2019-01-11T14:03:02.097Z,80.70
2019-01-11T14:05:31.545Z,80.20
2019-01-11T14:10:29.634Z,78.80
2019-01-11T14:12:58.954Z,80.30
2019-01-11T14:15:28.275Z,80.10
2019-01-11T14:17:57.600Z,80.40
2019-01-11T14:20:26.910Z,80.80
2019-01-11T14:22:56.314Z,80.90
2019-01-11T14:25:25.634Z,81.80
2019-01-11T14:27:54.958Z,81.40
2019-01-11T14:30:24.277Z,81.70
2019-01-11T14:32:53.594Z,82.00
2019-01-11T14:35:22.912Z,81.70
2019-01-11T14:37:52.230Z,82.80
2019-01-11T14:40:40.599Z,82.20
2019-01-11T14:43:09.919Z,82.60
2019-01-11T14:45:39.365Z,83.30
2019-01-11T14:48:08.754Z,81.20
2019-01-11T14:50:38.080Z,82.80
2019-01-11T14:53:07.399Z,82.20
2019-01-11T14:55:36.725Z,82.00
2019-01-11T14:58:06.227Z,82.30
2019-01-11T15:00:35.546Z,81.50
2019-01-11T15:03:23.956Z,81.90
2019-01-11T15:05:53.303Z,81.80
2019-01-11T15:08:22.692Z,82.30
2019-01-11T15:10:52.011Z,82.00
2019-01-11T15:13:21.359Z,82.20
2019-01-11T15:15:50.746Z,81.40
2019-01-11T15:18:20.074Z,81.70
2019-01-11T15:20:49.406Z,80.30
2019-01-11T15:23:18.722Z,81.10
2019-01-11T15:25:48.054Z,80.90
2019-01-11T15:28:17.376Z,81.70
2019-01-11T15:30:46.769Z,81.90
2019-01-11T15:33:16.095Z,81.00
2019-01-11T15:35:45.438Z,80.60
2019-01-11T15:38:15.176Z,81.70
2019-01-11T15:40:44.500Z,82.30
2019-01-11T15:43:13.957Z,82.60
2019-01-11T15:45:43.353Z,82.10
2019-01-11T15:48:17.841Z,82.20
2019-01-11T15:50:52.757Z,83.80
2019-01-11T15:53:22.134Z,83.90
2019-01-11T15:55:54.023Z,84.90
2019-01-11T15:58:23.354Z,85.40
2019-01-11T16:00:52.687Z,85.90
2019-01-11T16:03:22.077Z,86.70
2019-01-11T16:06:20.639Z,86.90
2019-01-11T16:12:11.951Z,87.90
2019-01-11T16:14:56.034Z,88.00
2019-01-11T16:17:25.634Z,88.60
2019-01-11T16:19:54.950Z,89.10
2019-01-11T16:22:24.275Z,88.30
2019-01-11T16:24:53.655Z,88.50
2019-01-11T16:29:51.750Z,88.10
2019-01-11T16:44:44.743Z,88.30
2019-01-11T16:47:14.064Z,88.70
2019-01-11T16:49:43.392Z,88.40
2019-01-11T16:52:15.418Z,89.40
2019-01-11T16:54:43.818Z,88.20
2019-01-11T16:57:13.165Z,90.20
2019-01-11T16:59:42.558Z,89.20
2019-01-11T17:02:11.888Z,88.90
2019-01-11T17:04:41.220Z,89.90
2019-01-11T17:07:10.543Z,89.20
2019-01-11T17:09:39.866Z,89.00
2019-01-11T17:12:09.178Z,88.40
2019-01-11T17:14:38.491Z,88.80
2019-01-11T17:17:07.812Z,87.70
2019-01-11T17:19:37.185Z,88.50
2019-01-11T17:22:06.498Z,88.90
2019-01-11T17:24:35.828Z,88.80
2019-01-11T17:27:05.188Z,89.30
2019-01-11T17:29:34.508Z,90.00
2019-01-11T17:32:03.933Z,90.20
2019-01-11T17:34:33.287Z,90.10
2019-01-11T17:37:02.607Z,90.20
2019-01-11T17:39:32.031Z,89.10
2019-01-11T17:42:01.359Z,89.90
2019-01-11T17:44:30.691Z,90.30
2019-01-11T17:47:00.015Z,90.30
2019-01-11T17:49:29.342Z,90.40
2019-01-11T17:51:58.690Z,90.60
2019-01-11T18:01:56.999Z,90.30
2019-01-11T18:04:26.331Z,90.30
2019-01-11T18:06:55.722Z,90.60
2019-01-11T18:09:25.204Z,91.20
2019-01-11T18:11:54.579Z,90.70
2019-01-11T18:17:29.021Z,90.80
2019-01-11T18:20:18.627Z,91.60
2019-01-11T18:22:48.084Z,91.40
2019-01-11T18:25:36.446Z,91.80
2019-01-11T18:28:05.794Z,91.70
2019-01-11T18:30:35.119Z,91.90
2019-01-11T18:33:04.443Z,92.20
2019-01-11T18:35:52.827Z,92.10
2019-01-11T18:38:22.172Z,91.70
2019-01-11T18:46:32.598Z,91.60
2019-01-11T18:49:01.921Z,91.90
2019-01-11T18:54:00.083Z,92.10
2019-01-11T18:56:29.403Z,92.20
2019-01-11T18:58:58.726Z,92.40
2019-01-11T19:01:28.118Z,92.10
2019-01-11T19:04:16.593Z,92.90
2019-01-11T19:12:56.358Z,92.40
2019-01-11T19:15:29.877Z,92.50
2019-01-11T19:18:18.348Z,92.90
2019-01-11T19:20:47.685Z,92.60
2019-01-11T19:23:36.070Z,92.90
2019-01-11T19:26:05.463Z,92.60
2019-01-11T19:31:23.815Z,92.40
2019-01-11T19:34:12.259Z,92.50
2019-01-11T19:36:41.604Z,92.10
2019-01-11T19:39:10.915Z,92.30
2019-01-11T19:41:40.254Z,92.20
2019-01-11T19:47:02.626Z,92.20
2019-01-11T19:49:51.070Z,92.60
2019-01-11T19:52:39.468Z,92.70
2019-01-11T20:01:18.980Z,92.90
2019-01-11T20:03:48.444Z,93.30
2019-01-11T20:06:17.849Z,93.60
2019-01-11T20:08:47.220Z,93.20
2019-01-11T20:11:16.656Z,93.40
2019-01-11T20:13:46.042Z,93.20
2019-01-11T20:16:15.380Z,93.30
2019-01-11T20:18:44.791Z,93.10
2019-01-11T20:21:33.206Z,92.90
2019-01-11T20:24:21.619Z,92.80
2019-01-11T20:29:56.486Z,92.30
2019-01-11T20:32:25.803Z,92.40
2019-01-11T20:35:14.398Z,92.40
2019-01-11T20:37:45.513Z,92.80
2019-01-11T20:40:33.978Z,92.20
2019-01-11T20:58:43.263Z,91.90
2019-01-11T21:01:31.711Z,91.80
2019-01-11T21:04:01.071Z,91.90
2019-01-11T21:06:49.451Z,92.10
2019-01-11T21:12:23.375Z,92.40
2019-01-11T21:15:12.210Z,92.30
2019-01-11T21:20:46.487Z,92.10
2019-01-11T21:23:15.794Z,92.70
2019-01-11T21:25:45.128Z,92.80
2019-01-11T21:28:33.495Z,92.30
2019-01-11T21:31:02.850Z,92.70
2019-01-11T21:33:51.226Z,93.10
2019-01-11T21:42:30.798Z,93.50
2019-01-11T21:54:29.674Z,93.60
2019-01-11T21:57:18.072Z,93.50
2019-01-11T22:27:23.079Z,93.10
2019-01-11T22:30:12.931Z,92.60
2019-01-11T22:32:42.246Z,92.70
2019-01-11T22:35:30.618Z,92.70
2019-01-11T22:56:00.571Z,94.10
2019-01-11T22:58:48.939Z,94.30
2019-01-11T23:11:06.963Z,93.90
2019-01-11T23:25:46.864Z,92.60
2019-01-11T23:28:35.234Z,93.30
2019-01-11T23:31:23.606Z,93.10
